EPKKEPMO

Guest
Details From EPKK - BALICE
To EPMO - MODLIN
Flight Number -
Tags generated
Created
Modified
Stats Distance 146 nm / 271 km
Max Altitude 15,000 ft / 4,572 m
Waypoints 3
Social Downloads 0
Likes 0
Share VATSIM

Download

Looking for another format? Having issues loading an existing format? Contact us
Advertisement - Login to hide

Notes

Basic altitude profile: - Ascent Rate: 2500ft/min - Ascent Speed: 250kts - Cruise Altitude: 35000ft - Cruise Speed: 420kts - Descent Rate: 1500ft/min - Descent Speed: 250kts Options: - Use NATs: yes - Use PACOTS: yes - Use low airways: yes - Use high airways: yes

Route

EPKK KUKAM EPMO

ID Type Via Altitude Latitude Longitude Leg Dist Tot Dist Heading (true) Name
O EPKK APT - 0 ft / 0 m 50.07782˚ 19.78550˚ - 0 nm - BALICE
KUKAM FIX - 15,000 ft / 4,572 m 50.80611˚ 20.06056˚ 44 nm 44 nm 13° / 14° -
O EPMO APT - 0 ft / 0 m 52.45111˚ 20.65178˚ 101 nm 146 nm 12° / 13° MODLIN

Altitude Profile

Advertisement - Login to hide

EPKK

Details ICAO EPKK (KRK)
Name BALICE
Region Poland
Timezone Europe/Warsaw (UTC+2.0)
Stats Elevation 791 ft / 241 m (AMSL)
Location 50.077821° 19.785503°
Runways 1
Magnetic Variation 5.256° E

METAR

EPKK 260830Z VRB02KT 9999 FEW026 21/14 Q1022

Decode

TAF

TAF EPKK 260830Z 2609/2709 VRB02KT 9999 SCT043 TEMPO 2612/2620 -SHRA BKN033CB PROB40 TEMPO 2612/2619 VRB18G32KT 4000 TSRA BKN023CB PROB30 2700/2705 2000 BR

Decode

Departure Runways

ID Width Length Bearing (true) Bearing (mag) Surface Threshold Offset Overrun Length
07 197 ft / 60 m 8,343 ft / 2,543 m 77.75° 72.49° Concrete 0 ft / 0 m 0 ft / 0 m
25 197 ft / 60 m 8,343 ft / 2,543 m 257.77° 252.51° Concrete 784 ft / 239 m 0 ft / 0 m

EPMO

Details ICAO EPMO (WMI)
Name MODLIN
Region Poland
Timezone Europe/Warsaw (UTC+2.0)
Stats Elevation 341 ft / 104 m (AMSL)
Location 52.451110° 20.651778°
Runways 1
Magnetic Variation 5.824° E

METAR

EPMO 260830Z 07006KT 040V100 9999 -TSRA BKN046CB 17/16 Q1024

Decode

TAF

TAF EPMO 260530Z 2606/2706 07005KT CAVOK TEMPO 2606/2610 SHRA BKN040CB TEMPO 2610/2624 VRB15G30KT 2000 TSRA BKN030CB

Decode

Destination Runways

ID Width Length Bearing (true) Bearing (mag) Surface Threshold Offset Overrun Length
08 197 ft / 60 m 8,188 ft / 2,496 m 81.96° 76.14° Asphalt 0 ft / 0 m 0 ft / 0 m
26 197 ft / 60 m 8,188 ft / 2,496 m 261.99° 256.17° Asphalt 0 ft / 0 m 0 ft / 0 m

Popular Alternatives